Weather History for Port Huron, MI

Change the Weather History Date:

Saturday, November 26, 2011

  Actual Average (KMTC) Record (KMTC)
Temperature  
Mean Temperature 50 °F -  
Max Temperature 57 °F 44 °F 59 °F (2006)
Min Temperature 44 °F 33 °F 10 °F (1949)
Degree Days  
Heating Degree Days 14    
Moisture  
Dew Point 40 °F    
Average Humidity 68    
Maximum Humidity 81    
Minimum Humidity 58    
Precipitation  
Precipitation 0.00 in - - ()
Sea Level Pressure  
Sea Level Pressure 30.00 in    
Wind  
Wind Speed 8 mph (South)    
Max Wind Speed 16 mph    
Max Gust Speed 23 mph    
Visibility 10 miles    
Events      
Averages and records for this station are not official NWS values.
T = Trace of Precipitation, MM = Missing Value Source: NWS Daily Summary

Daily Weather History Graph

Daily Weather History Graph

Search for Another Location

Airport:

Trip Planner

Search our weather history database for the weather conditions in past years. The results will help you decide how hot, cold, wet, or windy it might be!

Date:

Astronomy

Nov. 26, 2011 Rise Set
Actual Time 7:35 AM EST 4:59 PM EST
Civil Twilight 7:04 AM EST 5:30 PM EST
Nautical Twilight 6:29 AM EST 6:05 PM EST
Astronomical Twilight 5:55 AM EST 6:39 PM EST
Moon 9:06 AM EST (11/26) 6:27 PM EST (11/26)
Length of Visible Light 10h 26m
Length of Day
9h 23m
Waxing Crescent, 3% of the Moon is Illuminated
Nov 26
Waxing Crescent
Dec 2
First Quarter
Dec 10
Full
Dec 17
Last Quarter
Dec 24
New

Hourly Weather History & Observations

Time (EST) Temp. Windchill Dew Point Humidity Pressure Visibility Wind Dir Wind Speed Gust Speed Precip Events Conditions
12:17 AM 46.4 °F 43.5 °F 39.2 °F 76% 30.02 in 10.0 mi SSW 5.8 mph - N/A   Clear
12:37 AM 44.6 °F 41.4 °F 39.2 °F 81% 30.02 in 10.0 mi South 5.8 mph - N/A   Clear
12:57 AM 46.4 °F 43.5 °F 39.2 °F 76% 30.02 in 10.0 mi South 5.8 mph - N/A   Clear
1:17 AM 46.4 °F 43.5 °F 39.2 °F 76% 30.01 in 10.0 mi South 5.8 mph - N/A   Clear
1:37 AM 46.4 °F 44.3 °F 39.2 °F 76% 30.01 in 10.0 mi South 4.6 mph - N/A   Clear
1:57 AM 46.4 °F 43.5 °F 39.2 °F 76% 30.02 in 10.0 mi South 5.8 mph - N/A   Clear
2:17 AM 46.4 °F 43.5 °F 39.2 °F 76% 30.02 in 10.0 mi South 5.8 mph - N/A   Clear
2:37 AM 46.4 °F 43.5 °F 39.2 °F 76% 30.03 in 10.0 mi South 5.8 mph - N/A   Clear
2:57 AM 46.4 °F 43.5 °F 39.2 °F 76% 30.03 in 10.0 mi South 5.8 mph - N/A   Clear
3:16 AM 46.4 °F 43.5 °F 39.2 °F 76% 30.03 in 10.0 mi South 5.8 mph - N/A   Clear
3:37 AM 46.4 °F 43.5 °F 39.2 °F 76% 30.02 in 10.0 mi South 5.8 mph - N/A   Clear
3:57 AM 46.4 °F 42.9 °F 39.2 °F 76% 30.02 in 10.0 mi South 6.9 mph - N/A   Clear
4:17 AM 46.4 °F 43.5 °F 39.2 °F 76% 30.03 in 10.0 mi South 5.8 mph - N/A   Clear
4:37 AM 46.4 °F 42.9 °F 39.2 °F 76% 30.03 in 10.0 mi South 6.9 mph - N/A   Clear
4:57 AM 46.4 °F 43.5 °F 39.2 °F 76% 30.03 in 10.0 mi South 5.8 mph - N/A   Clear
5:16 AM 46.4 °F 43.5 °F 37.4 °F 71% 30.03 in 10.0 mi SSW 5.8 mph - N/A   Clear
5:37 AM 46.4 °F 43.5 °F 37.4 °F 71% 30.03 in 10.0 mi South 5.8 mph - N/A   Clear
5:57 AM 46.4 °F 43.5 °F 37.4 °F 71% 30.02 in 10.0 mi South 5.8 mph - N/A   Clear
6:17 AM 46.4 °F 44.3 °F 37.4 °F 71% 30.02 in 10.0 mi South 4.6 mph - N/A   Clear
6:37 AM 46.4 °F 42.9 °F 37.4 °F 71% 30.02 in 10.0 mi South 6.9 mph - N/A   Clear
6:57 AM 46.4 °F 42.9 °F 37.4 °F 71% 30.02 in 10.0 mi South 6.9 mph - N/A   Clear
7:17 AM 46.4 °F 42.4 °F 37.4 °F 71% 30.02 in 10.0 mi South 8.1 mph - N/A   Clear
7:37 AM 46.4 °F 42.4 °F 35.6 °F 66% 30.02 in 10.0 mi South 8.1 mph - N/A   Clear
7:57 AM 46.4 °F 42.4 °F 35.6 °F 66% 30.02 in 10.0 mi South 8.1 mph - N/A   Clear
8:17 AM 46.4 °F 42.4 °F 35.6 °F 66% 30.03 in 10.0 mi South 8.1 mph - N/A   Clear
8:37 AM 46.4 °F 42.4 °F 37.4 °F 71% 30.03 in 10.0 mi SSW 8.1 mph - N/A   Clear
8:57 AM 48.2 °F - 37.4 °F 66% 30.03 in 10.0 mi South 8.1 mph - N/A   Clear
9:17 AM 48.2 °F - 37.4 °F 66% 30.03 in 10.0 mi South 8.1 mph - N/A   Clear
9:37 AM 48.2 °F - 37.4 °F 66% 30.03 in 10.0 mi South 9.2 mph - N/A   Clear
9:57 AM 50.0 °F - 37.4 °F 62% 30.03 in 10.0 mi South 9.2 mph - N/A   Clear
10:17 AM 50.0 °F - 37.4 °F 62% 30.03 in 10.0 mi SSW 11.5 mph 18.4 mph N/A   Clear
10:37 AM 50.0 °F - 37.4 °F 62% 30.03 in 10.0 mi SSW 12.7 mph 19.6 mph N/A   Clear
10:57 AM 51.8 °F - 39.2 °F 62% 30.02 in 10.0 mi South 13.8 mph - N/A   Clear
11:17 AM 51.8 °F - 39.2 °F 62% 30.02 in 10.0 mi South 13.8 mph 23.0 mph N/A   Clear
11:37 AM 51.8 °F - 39.2 °F 62% 30.01 in 10.0 mi South 15.0 mph 20.7 mph N/A   Clear
11:57 AM 53.6 °F - 41.0 °F 62% 30.00 in 10.0 mi South 16.1 mph - N/A   Clear
12:17 PM 53.6 °F - 41.0 °F 62% 30.00 in 10.0 mi SSW 11.5 mph 18.4 mph N/A   Clear
12:37 PM 55.4 °F - 41.0 °F 58% 29.99 in 10.0 mi SSW 11.5 mph 19.6 mph N/A   Clear
12:57 PM 55.4 °F - 41.0 °F 58% 29.99 in 10.0 mi South 10.4 mph - N/A   Scattered Clouds
1:17 PM 55.4 °F - 42.8 °F 63% 29.98 in 10.0 mi South 12.7 mph - N/A   Clear
1:37 PM 55.4 °F - 42.8 °F 63% 29.97 in 10.0 mi South 12.7 mph 18.4 mph N/A   Clear
1:57 PM 55.4 °F - 42.8 °F 63% 29.97 in 10.0 mi South 12.7 mph 16.1 mph N/A   Scattered Clouds
2:17 PM 55.4 °F - 42.8 °F 63% 29.96 in 10.0 mi South 11.5 mph - N/A   Scattered Clouds
2:37 PM 55.4 °F - 44.6 °F 67% 29.95 in 10.0 mi South 15.0 mph - N/A   Scattered Clouds
2:57 PM 55.4 °F - 44.6 °F 67% 29.95 in 10.0 mi South 11.5 mph - N/A   Scattered Clouds
3:17 PM 57.2 °F - 44.6 °F 63% 29.95 in 10.0 mi South 9.2 mph - N/A   Mostly Cloudy
3:37 PM 55.4 °F - 44.6 °F 67% 29.95 in 10.0 mi South 12.7 mph 17.3 mph N/A   Mostly Cloudy
3:57 PM 57.2 °F - 44.6 °F 63% 29.95 in 10.0 mi South 12.7 mph 19.6 mph N/A   Overcast
4:17 PM 57.2 °F - 44.6 °F 63% 29.94 in 10.0 mi South 12.7 mph 17.3 mph N/A   Mostly Cloudy
4:37 PM 57.2 °F - 44.6 °F 63% 29.94 in 10.0 mi South 10.4 mph 18.4 mph N/A   Mostly Cloudy
4:57 PM 55.4 °F - 44.6 °F 67% 29.94 in 10.0 mi SSE 10.4 mph - N/A   Mostly Cloudy
5:17 PM 55.4 °F - 44.6 °F 67% 29.94 in 10.0 mi South 10.4 mph - N/A   Mostly Cloudy
5:37 PM 55.4 °F - 44.6 °F 67% 29.94 in 10.0 mi South 8.1 mph - N/A   Scattered Clouds
5:57 PM 55.4 °F - 44.6 °F 67% 29.94 in 10.0 mi South 9.2 mph - N/A   Scattered Clouds
6:17 PM 55.4 °F - 44.6 °F 67% 29.93 in 10.0 mi South 8.1 mph - N/A   Overcast
6:37 PM 55.4 °F - 44.6 °F 67% 29.93 in 10.0 mi South 9.2 mph - N/A   Overcast
6:57 PM 55.4 °F - 44.6 °F 67% 29.94 in 10.0 mi South 10.4 mph - N/A   Overcast
7:17 PM 57.2 °F - 44.6 °F 63% 29.94 in 10.0 mi South 10.4 mph 16.1 mph N/A   Overcast
7:37 PM 57.2 °F - 44.6 °F 63% 29.93 in 10.0 mi South 11.5 mph 18.4 mph N/A   Overcast
7:57 PM 57.2 °F - 44.6 °F 63% 29.92 in 10.0 mi South 11.5 mph 18.4 mph N/A   Overcast
8:17 PM 59.0 °F - 44.6 °F 59% 29.92 in 10.0 mi South 16.1 mph 25.3 mph N/A   Overcast
8:37 PM 57.2 °F - 44.6 °F 63% 29.91 in 10.0 mi SSW 17.3 mph 24.2 mph N/A   Overcast
8:56 PM 57.2 °F - 46.4 °F 67% 29.92 in 10.0 mi South 16.1 mph 32.2 mph N/A Rain Rain
9:17 PM 53.6 °F - 48.2 °F 82% 29.93 in 10.0 mi South 12.7 mph - N/A Rain Rain
9:37 PM 53.6 °F - 48.2 °F 82% 29.93 in 10.0 mi SSW 12.7 mph - N/A Rain Light Rain
9:57 PM 53.6 °F - 48.2 °F 82% 29.91 in 10.0 mi SSE 8.1 mph - N/A Rain Light Rain
10:17 PM 53.6 °F - 48.2 °F 82% 29.90 in 10.0 mi South 10.4 mph - N/A   Overcast
10:37 PM 53.6 °F - 46.4 °F 77% 29.88 in 10.0 mi South 11.5 mph - N/A   Light Drizzle
10:57 PM 53.6 °F - 46.4 °F 77% 29.88 in 10.0 mi South 11.5 mph 17.3 mph N/A   Overcast
11:17 PM 53.6 °F - 44.6 °F 72% 29.88 in 10.0 mi South 11.5 mph 16.1 mph N/A   Overcast
11:37 PM 53.6 °F - 44.6 °F 72% 29.88 in 10.0 mi South 11.5 mph 16.1 mph N/A   Overcast
11:57 PM 55.4 °F - 44.6 °F 67% 29.87 in 10.0 mi South 11.5 mph - N/A   Overcast